Página principal
METAR-TAF:

METAR-TAF

Aeroportos :

Ambae, Vanuatu

latitude: 15-18-24S, longitude: 167-58-02E, altura: 51 m

Observação actual do tempo

O boletim foi feito há 27 minutos, às 05:00 UTC
Vento 4 kt de su-sudeste
Temperatura 28°C
Humidade 79%
Pressão 1008 hPa

METAR: NVSG 140500Z AUTO 16004KT //// // NCD 28/24 Q1008

Hora: 16:27 (05:27 UTC)

Previsão

O boletim foi feito há 7 horas e 7 minutos, às 22:20 UTC
Previsão válida de 14 às 00 UTC a 14 às 24 UTC
Vento 5 kt de su-sudeste
Visibilidade 10 km ou mais
Nuvens dispersasa uma altura de 2000 ft

TAF: NVSG 132220Z 1400/1424 15005KT 9999 SCT020

Observações e previsões do tempo de mais de 4000 aeroportos (mensagens METAR e TAF).

As estações disponíveis são os pontos amarelos e vermelhos sobre o mapa.

Mova o rato sobre o mapa para ver o nome da estação.

Depois clique no ponto para visualizar as observações e previsões meteorológicas.

Para alterar o mapa : clique nos botões verdes com uma cruz preta para aumentar o zoom; no botão verde com uma pitada de zoom; ou nas setas verdes para mapas adjacentes.


METAR-TAF: